Time;durP1;ratioP1;P1;durP2;ratioP2;P2;SDS_P1;SDS_P2;PMS_P1;PMS_P2;Temp;Humidity;BMP_temperature;BMP_pressure;BME280_temperature;BME280_humidity;BME280_pressure;Samples;Min_cycle;Max_cycle;Signal;HPM_P1;HPM_P2
2022/10/26 00:01:01;;;;;;;;;;;;;;;11.21;100.00;99264.86;106854;1294;139043;-56
2022/10/26 00:03:28;;;;;;;15.00;13.00;;;;;;;11.26;100.00;99267.08;106837;1300;22216;-55
2022/10/26 00:06:01;;;;;;;14.70;12.90;;;;;;;11.26;100.00;99270.46;106813;1284;22199;-55
2022/10/26 00:08:28;;;;;;;15.40;12.00;;;;;;;11.25;100.00;99273.96;106721;1303;138471;-56
2022/10/26 00:10:56;;;;;;;;;;;;;;;11.23;100.00;99273.91;106975;1300;22327;-56
2022/10/26 00:13:22;;;;;;;12.80;10.30;;;;;;;11.22;100.00;99274.84;106768;1300;125366;-56
2022/10/26 00:15:49;;;;;;;;;;;;;;;11.22;100.00;99274.79;106853;1303;22541;-55
2022/10/26 00:18:16;;;;;;;10.40;7.70;;;;;;;11.22;100.00;99278.88;106911;1303;23036;-55
2022/10/26 00:20:42;;;;;;;;;;;;;;;11.22;100.00;99281.55;106764;1303;138131;-55
2022/10/26 00:23:09;;;;;;;10.80;7.60;;;;;;;11.22;100.00;99287.00;106845;1303;22158;-55
2022/10/26 00:25:36;;;;;;;;;;;;;;;11.22;100.00;99286.89;106852;1303;139462;-55
2022/10/26 00:28:03;;;;;;;10.90;8.20;;;;;;;11.22;100.00;99284.88;106837;1302;22189;-55
2022/10/26 00:30:29;;;;;;;8.70;7.70;;;;;;;11.23;100.00;99282.38;106886;1300;22153;-55
2022/10/26 00:32:56;;;;;;;;;;;;;;;11.25;100.00;99282.86;106838;1303;137851;-55
2022/10/26 00:35:23;;;;;;;8.30;7.10;;;;;;;11.28;100.00;99283.79;106913;1286;22261;-55
2022/10/26 00:38:09;;;;;;;10.60;8.50;;;;;;;11.31;100.00;99287.13;106736;1294;139256;-56
2022/10/26 00:40:36;;;;;;;;;;;;;;;11.31;100.00;99284.02;106948;1292;22437;-55
2022/10/26 00:43:04;;;;;;;11.10;8.90;;;;;;;11.35;100.00;99287.09;106763;1293;125111;-55
2022/10/26 00:45:31;;;;;;;15.00;10.90;;;;;;;11.37;100.00;99290.70;106824;1303;22195;-56
2022/10/26 00:48:00;;;;;;;27.90;11.60;;;;;;;11.39;100.00;99289.88;106939;1293;22109;-56
2022/10/26 00:50:39;;;;;;;14.60;11.00;;;;;;;11.40;100.00;99290.97;106585;1308;140201;-53
2022/10/26 00:53:06;;;;;;;14.50;10.90;;;;;;;11.41;100.00;99287.64;106849;1303;22221;-53
2022/10/26 00:55:33;;;;;;;;;;;;;;;11.43;100.00;99287.42;106728;1300;140002;-53
2022/10/26 00:58:01;;;;;;;15.00;10.90;;;;;;;11.42;100.00;99288.73;106863;1303;22302;-55
2022/10/26 01:00:28;;;;;;;16.20;10.60;;;;;;;11.41;100.00;99288.84;106783;1302;22201;-57
2022/10/26 01:02:54;;;;;;;;;;;;;;;11.43;100.00;99289.39;106770;1300;139184;-54
2022/10/26 01:05:21;;;;;;;12.30;10.30;;;;;;;11.41;100.00;99288.13;106814;1303;22824;-54
2022/10/26 01:07:48;;;;;;;;;;;;;;;11.41;100.00;99290.20;105734;1303;1325418;-55
2022/10/26 01:12:00;;;;;;;10.60;8.70;;;;;;;11.45;100.00;99288.68;99602;1331;545124;-54
2022/10/26 01:14:26;;;;;;;;;;;;;;;11.44;100.00;99294.85;101320;1320;137700;-56
2022/10/26 01:16:59;;;;;;;11.60;8.50;;;;;;;11.43;100.00;99297.47;101448;1307;23083;-53
2022/10/26 01:20:04;;;;;;;14.30;9.20;;;;;;;11.44;100.00;99294.74;101182;1310;138558;-55
2022/10/26 01:22:49;;;;;;;10.80;8.10;;;;;;;11.40;100.00;99290.97;101264;1314;22929;-55
2022/10/26 01:25:38;;;;;;;8.90;7.60;;;;;;;11.42;100.00;99296.27;100568;1308;973539;-55
2022/10/26 01:28:12;;;;;;;10.80;7.70;;;;;;;11.39;100.00;99291.48;101365;1305;22729;-54
2022/10/26 01:30:39;;;;;;;9.90;7.50;;;;;;;11.40;100.00;99295.78;101306;1300;24321;-54
2022/10/26 01:33:21;;;;;;;9.90;7.70;;;;;;;11.39;100.00;99290.98;101208;1307;138097;-55
2022/10/26 01:35:59;;;;;;;9.20;7.70;;;;;;;11.37;100.00;99290.70;101383;1314;25362;-54
2022/10/26 01:38:44;;;;;;;8.40;6.80;;;;;;;11.36;100.00;99290.81;101316;1307;137904;-55
2022/10/26 01:41:31;;;;;;;7.90;7.00;;;;;;;11.35;100.00;99291.55;101321;1297;22489;-55
2022/10/26 01:44:00;;;;;;;9.60;7.30;;;;;;;11.33;100.00;99293.03;105397;1322;138233;-55
2022/10/26 01:46:29;;;;;;;10.40;7.80;;;;;;;11.33;100.00;99289.48;105798;1315;22130;-54
2022/10/26 01:48:58;;;;;;;9.20;7.60;;;;;;;11.33;100.00;99288.83;105745;1313;139594;-55
2022/10/26 01:51:25;;;;;;;8.90;7.40;;;;;;;11.34;100.00;99288.34;105738;1316;23153;-55
2022/10/26 01:53:52;;;;;;;8.60;7.40;;;;;;;11.33;100.00;99294.78;105680;1316;22298;-55
2022/10/26 01:56:20;;;;;;;9.40;7.30;;;;;;;11.34;100.00;99294.89;105795;1316;139104;-55
2022/10/26 01:59:16;;;;;;;9.70;8.00;;;;;;;11.34;100.00;99296.36;105827;1314;22966;-54
2022/10/26 02:02:30;;;;;;;11.20;8.20;;;;;;;11.35;100.00;99300.95;105659;1316;137834;-55
2022/10/26 02:05:16;;;;;;;10.90;8.20;;;;;;;11.35;100.00;99300.14;105129;1324;22205;-55
2022/10/26 02:07:43;;;;;;;12.10;9.30;;;;;;;11.36;100.00;99301.17;104889;1322;137932;-55
2022/10/26 02:10:21;;;;;;;;;;;;;;;11.36;100.00;99303.89;105069;1322;22516;-55
2022/10/26 02:12:54;;;;;;;8.50;7.50;;;;;;;11.36;100.00;99304.83;105071;1326;22266;-55
2022/10/26 02:15:25;;;;;;;10.40;8.60;;;;;;;11.36;100.00;99308.16;104934;1327;22280;-55
2022/10/26 02:17:56;;;;;;;12.00;8.70;;;;;;;11.38;100.00;99307.56;104866;1322;22244;-56
2022/10/26 02:20:26;;;;;;;11.20;8.30;;;;;;;11.38;100.00;99309.09;104923;1324;137980;-54
2022/10/26 02:22:52;;;;;;;11.70;8.20;;;;;;;11.39;100.00;99312.27;104970;1322;22397;-54
2022/10/26 02:25:22;;;;;;;9.80;8.40;;;;;;;11.40;100.00;99308.77;104884;1321;138678;-55
2022/10/26 02:27:51;;;;;;;10.50;8.90;;;;;;;11.42;100.00;99306.95;104895;1322;22291;-54
2022/10/26 02:30:18;;;;;;;10.70;8.40;;;;;;;11.42;100.00;99309.13;104882;1328;22347;-55
2022/10/26 02:32:47;;;;;;;10.50;8.80;;;;;;;11.44;100.00;99311.60;105950;1300;138163;-55
2022/10/26 02:35:14;;;;;;;10.40;8.00;;;;;;;11.45;100.00;99308.88;106038;1311;22134;-54
2022/10/26 02:37:41;;;;;;;11.80;8.70;;;;;;;11.46;100.00;99313.73;105978;1310;139699;-55
2022/10/26 02:40:10;;;;;;;12.30;7.90;;;;;;;11.48;100.00;99313.80;106037;1308;22251;-55
2022/10/26 02:42:39;;;;;;;10.30;8.00;;;;;;;11.50;100.00;99315.45;106438;1306;22157;-54
2022/10/26 02:45:08;;;;;;;10.40;8.10;;;;;;;11.51;100.00;99312.55;106631;1302;138139;-54
2022/10/26 02:47:34;;;;;;;12.50;9.60;;;;;;;11.52;100.00;99313.16;106553;1303;23493;-54
2022/10/26 02:50:01;;;;;;;14.40;10.30;;;;;;;11.54;100.00;99313.66;106533;1304;139385;-54
2022/10/26 02:52:37;;;;;;;13.50;10.30;;;;;;;11.54;100.00;99314.30;106625;1303;22154;-54
2022/10/26 02:55:06;;;;;;;12.00;10.00;;;;;;;11.54;100.00;99313.05;106629;1294;139456;-55
2022/10/26 02:57:43;;;;;;;15.60;10.80;;;;;;;11.54;100.00;99311.63;106649;1303;22119;-55
2022/10/26 03:00:12;;;;;;;15.60;13.90;;;;;;;11.54;100.00;99316.94;106544;1298;22243;-55
2022/10/26 03:02:43;;;;;;;14.30;11.10;;;;;;;11.52;100.00;99320.37;106483;1296;138290;-55
2022/10/26 03:05:19;;;;;;;11.40;10.20;;;;;;;11.51;100.00;99321.84;106666;1299;22166;-54
2022/10/26 03:07:46;;;;;;;13.40;10.10;;;;;;;11.52;100.00;99326.21;106700;1303;138221;-54
2022/10/26 03:10:13;;;;;;;;;;;;;;;11.52;100.00;99328.06;106725;1296;22608;-54
2022/10/26 03:12:39;;;;;;;19.20;9.50;;;;;;;11.52;100.00;99329.97;106680;1304;22190;-55
2022/10/26 03:15:06;;;;;;;;;;;;;;;11.50;100.00;99332.80;106670;1298;137912;-55
2022/10/26 03:17:33;;;;;;;14.20;10.10;;;;;;;11.45;100.00;99324.98;106659;1306;22202;-55
2022/10/26 03:20:00;;;;;;;13.30;9.50;;;;;;;11.44;100.00;99325.35;106585;1305;138305;-54
2022/10/26 03:22:27;;;;;;;17.20;9.10;;;;;;;11.44;100.00;99326.28;106650;1297;22378;-55
2022/10/26 03:24:53;;;;;;;;;;;;;;;11.44;100.00;99326.72;106670;1296;23088;-55
2022/10/26 03:27:20;;;;;;;10.50;8.70;;;;;;;11.45;100.00;99329.02;106758;1303;22312;-54
2022/10/26 03:29:47;;;;;;;10.40;9.20;;;;;;;11.42;100.00;99323.98;106709;1298;22165;-55
2022/10/26 03:32:14;;;;;;;12.00;9.50;;;;;;;11.45;100.00;99328.19;106656;1302;141138;-55
2022/10/26 03:34:41;;;;;;;;;;;;;;;11.46;100.00;99328.42;106772;1303;22571;-55
2022/10/26 03:37:07;;;;;;;15.00;9.10;;;;;;;11.48;100.00;99325.26;106607;1302;124355;-55
2022/10/26 03:39:34;;;;;;;;;;;;;;;11.49;100.00;99326.30;106776;1303;23097;-55
2022/10/26 03:42:01;;;;;;;14.40;8.20;;;;;;;11.49;100.00;99326.30;106696;1303;22931;-56
2022/10/26 03:44:27;;;;;;;;;;;;;;;11.49;100.00;99327.55;106625;1305;137938;-55
2022/10/26 03:46:54;;;;;;;11.20;8.60;;;;;;;11.49;100.00;99326.14;106734;1303;22882;-55
2022/10/26 03:49:21;;;;;;;;;;;;;;;11.49;100.00;99328.81;106654;1298;139604;-56
2022/10/26 03:51:47;;;;;;;9.80;8.50;;;;;;;11.50;100.00;99328.38;106755;1303;22907;-55
2022/10/26 03:54:14;;;;;;;;;;;;;;;11.51;100.00;99327.30;106734;1303;22437;-55
2022/10/26 03:56:41;;;;;;;10.80;9.00;;;;;;;11.51;100.00;99327.78;106642;1297;124332;-54
2022/10/26 03:59:07;;;;;;;;;;;;;;;11.52;100.00;99329.27;106728;1293;22387;-54
2022/10/26 04:01:34;;;;;;;13.00;8.20;;;;;;;11.51;100.00;99329.15;106700;1289;125303;-55
2022/10/26 04:04:01;;;;;;;10.10;7.40;;;;;;;11.52;100.00;99330.24;106757;1296;22303;-54
2022/10/26 04:06:28;;;;;;;10.40;8.30;;;;;;;11.52;100.00;99329.80;106789;1302;22448;-54
2022/10/26 04:09:00;;;;;;;;;;;;;;;11.52;100.00;99328.66;106705;1303;139585;-54
2022/10/26 04:11:28;;;;;;;14.50;9.30;;;;;;;11.53;100.00;99324.14;106704;1305;22209;-55
2022/10/26 04:13:55;;;;;;;14.60;8.80;;;;;;;11.52;100.00;99321.63;106616;1305;139839;-54
2022/10/26 04:16:22;;;;;;;12.00;8.30;;;;;;;11.50;100.00;99321.67;104543;1285;22552;-54
2022/10/26 04:18:48;;;;;;;;;;;;;;;11.49;100.00;99321.73;102509;1287;24594;-52
2022/10/26 04:21:15;;;;;;;10.10;7.80;;;;;;;11.49;100.00;99322.76;106201;1310;124348;-53
2022/10/26 04:23:42;;;;;;;;;;;;;;;11.49;100.00;99325.77;106831;1294;22365;-55
2022/10/26 04:26:08;;;;;;;10.40;8.20;;;;;;;11.48;100.00;99321.93;106643;1302;124357;-56
2022/10/26 04:28:35;;;;;;;;;;;;;;;11.48;100.00;99319.05;106777;1302;22405;-56
2022/10/26 04:31:02;;;;;;;11.60;8.30;;;;;;;11.49;100.00;99318.71;106605;1303;124576;-55
2022/10/26 04:33:28;;;;;;;;;;;;;;;11.49;100.00;99316.05;106791;1302;22431;-54
2022/10/26 04:35:59;;;;;;;10.10;7.90;;;;;;;11.50;100.00;99316.44;106746;1293;23327;-54
2022/10/26 04:38:26;;;;;;;11.30;8.20;;;;;;;11.50;100.00;99316.27;106572;1294;138738;-54
2022/10/26 04:40:53;;;;;;;;;;;;;;;11.46;100.00;99311.45;106689;1278;23131;-55
2022/10/26 04:43:20;;;;;;;8.30;7.20;;;;;;;11.50;100.00;99315.39;106668;1302;126565;-55
2022/10/26 04:45:46;;;;;;;;;;;;;;;11.49;100.00;99316.15;106748;1287;22317;-55
2022/10/26 04:48:13;;;;;;;12.00;8.70;;;;;;;11.49;100.00;99317.25;106689;1290;22913;-55
2022/10/26 04:50:40;;;;;;;11.80;8.20;;;;;;;11.48;100.00;99318.02;106557;1287;138967;-55
2022/10/26 04:53:08;;;;;;;14.20;9.30;;;;;;;11.49;100.00;99322.48;106751;1303;22236;-56
2022/10/26 04:55:34;;;;;;;15.70;9.00;;;;;;;11.50;100.00;99321.79;106581;1305;139085;-55
2022/10/26 04:58:01;;;;;;;17.20;8.80;;;;;;;11.50;100.00;99323.48;106753;1303;22340;-56
2022/10/26 05:00:29;;;;;;;20.10;10.00;;;;;;;11.50;100.00;99323.48;106818;1303;23067;-55
2022/10/26 05:03:00;;;;;;;15.60;8.70;;;;;;;11.50;100.00;99314.73;106690;1303;139224;-56
2022/10/26 05:05:28;;;;;;;12.20;8.20;;;;;;;11.54;100.00;99318.45;106855;1303;22292;-56
2022/10/26 05:07:55;;;;;;;11.10;8.10;;;;;;;11.56;100.00;99318.66;106622;1302;139114;-56
2022/10/26 05:10:22;;;;;;;10.70;8.20;;;;;;;11.57;100.00;99325.33;106725;1302;22222;-56
2022/10/26 05:12:53;;;;;;;19.90;8.60;;;;;;;11.58;100.00;99325.55;106712;1291;23022;-56
2022/10/26 05:15:20;;;;;;;11.20;8.80;;;;;;;11.59;100.00;99329.16;106369;1303;138996;-55
2022/10/26 05:17:56;;;;;;;10.40;8.60;;;;;;;11.60;100.00;99330.47;102384;1288;22535;-53
2022/10/26 05:20:28;;;;;;;11.10;8.80;;;;;;;11.62;100.00;99332.44;102144;1284;138722;-55
2022/10/26 05:23:00;;;;;;;11.90;8.50;;;;;;;11.64;100.00;99334.96;102391;1294;22498;-54
2022/10/26 05:25:28;;;;;;;11.30;7.60;;;;;;;11.64;100.00;99334.14;106607;1297;141313;-55
2022/10/26 05:27:58;;;;;;;10.80;7.90;;;;;;;11.64;100.00;99338.84;106719;1303;22196;-55
2022/10/26 05:30:25;;;;;;;13.40;7.90;;;;;;;11.65;100.00;99340.21;106737;1281;22254;-55
2022/10/26 05:32:56;;;;;;;11.50;7.90;;;;;;;11.65;100.00;99341.63;106604;1300;139154;-55
2022/10/26 05:35:23;;;;;;;9.30;7.90;;;;;;;11.65;100.00;99343.05;106741;1294;22286;-55
2022/10/26 05:37:49;;;;;;;9.70;8.20;;;;;;;11.65;100.00;99345.95;106644;1303;137944;-55
2022/10/26 05:40:16;;;;;;;10.80;7.60;;;;;;;11.64;100.00;99346.15;106757;1303;22201;-55
2022/10/26 05:42:43;;;;;;;13.70;7.90;;;;;;;11.64;100.00;99343.54;106728;1303;22349;-55
2022/10/26 05:45:11;;;;;;;11.00;8.10;;;;;;;11.64;100.00;99346.32;106624;1302;138952;-54
2022/10/26 05:47:38;;;;;;;12.60;8.60;;;;;;;11.64;100.00;99345.83;106743;1303;23308;-55
2022/10/26 05:50:05;;;;;;;9.60;8.40;;;;;;;11.65;100.00;99343.87;106624;1302;138241;-56
2022/10/26 05:52:45;;;;;;;13.10;9.00;;;;;;;11.65;100.00;99342.83;106761;1303;23247;-56
2022/10/26 05:55:13;;;;;;;12.70;8.70;;;;;;;11.64;100.00;99345.34;106669;1291;138796;-55
2022/10/26 05:57:40;;;;;;;13.40;9.00;;;;;;;11.64;100.00;99343.81;106701;1303;22312;-55
2022/10/26 06:00:09;;;;;;;14.30;9.50;;;;;;;11.67;100.00;99346.60;106703;1303;22249;-56
2022/10/26 06:02:45;;;;;;;16.30;9.70;;;;;;;11.68;100.00;99352.27;106686;1303;138987;-56
2022/10/26 06:05:16;;;;;;;10.80;8.50;;;;;;;11.69;100.00;99348.99;106689;1303;22123;-56
2022/10/26 06:07:43;;;;;;;12.10;9.50;;;;;;;11.71;100.00;99351.89;106562;1302;138393;-56
2022/10/26 06:10:11;;;;;;;11.60;8.90;;;;;;;11.73;100.00;99348.79;106733;1303;22834;-55
2022/10/26 06:12:37;;;;;;;11.70;9.60;;;;;;;11.76;100.00;99349.02;106776;1302;22131;-54
2022/10/26 06:15:05;;;;;;;10.70;8.90;;;;;;;11.78;100.00;99352.71;106598;1300;138720;-56
2022/10/26 06:17:58;;;;;;;11.00;9.20;;;;;;;11.79;100.00;99352.34;106773;1296;22307;-55
2022/10/26 06:20:46;;;;;;;11.80;9.10;;;;;;;11.80;100.00;99350.70;106062;1303;139929;-56
2022/10/26 06:23:35;;;;;;;13.10;8.10;;;;;;;11.83;100.00;99352.72;106260;1309;22269;-56
2022/10/26 06:26:08;;;;;;;11.10;8.90;;;;;;;11.85;100.00;99352.98;106154;1308;139575;-56
2022/10/26 06:28:53;;;;;;;15.00;7.90;;;;;;;11.86;100.00;99355.38;106292;1293;22338;-55
2022/10/26 06:31:20;;;;;;;15.70;8.30;;;;;;;11.88;100.00;99361.78;106202;1308;140887;-56
2022/10/26 06:33:46;;;;;;;;;;;;;;;11.90;100.00;99362.49;106141;1310;22505;-56
2022/10/26 06:36:21;;;;;;;13.10;8.40;;;;;;;11.92;100.00;99362.73;106230;1309;22946;-56
2022/10/26 06:38:49;;;;;;;10.30;8.80;;;;;;;11.94;100.00;99366.34;106036;1301;138399;-56
2022/10/26 06:41:18;;;;;;;14.40;10.20;;;;;;;11.97;100.00;99367.23;106258;1291;22279;-55
2022/10/26 06:43:45;;;;;;;16.10;9.60;;;;;;;11.99;100.00;99369.83;105992;1308;139051;-56
2022/10/26 06:46:33;;;;;;;14.10;9.00;;;;;;;12.02;100.00;99369.99;106324;1301;22414;-56
2022/10/26 06:49:19;;;;;;;12.30;7.80;;;;;;;12.05;100.00;99370.11;106126;1309;139106;-56
2022/10/26 06:51:57;;;;;;;13.90;7.40;;;;;;;12.07;100.00;99375.27;106303;1308;22193;-56
2022/10/26 06:54:50;;;;;;;8.70;6.50;;;;;;;12.07;100.00;99378.10;106161;1310;22247;-56
2022/10/26 06:57:18;;;;;;;7.30;5.90;;;;;;;12.07;100.00;99377.44;105829;1301;139697;-56
2022/10/26 06:59:49;;;;;;;7.20;6.20;;;;;;;12.08;100.00;99381.16;106780;1302;22310;-58
2022/10/26 07:02:16;;;;;;;9.80;7.50;;;;;;;12.11;100.00;99385.85;106620;1303;138770;-55
2022/10/26 07:04:43;;;;;;;12.00;7.90;;;;;;;12.15;100.00;99386.83;106720;1295;22968;-55
2022/10/26 07:07:11;;;;;;;8.70;7.20;;;;;;;12.20;100.00;99385.59;106592;1303;139374;-54
2022/10/26 07:09:38;;;;;;;8.20;6.60;;;;;;;12.23;100.00;99389.21;106675;1297;22216;-56
2022/10/26 07:12:04;;;;;;;8.50;6.70;;;;;;;12.24;100.00;99386.86;106768;1300;23314;-56
2022/10/26 07:14:31;;;;;;;7.90;6.70;;;;;;;12.26;100.00;99387.72;106575;1302;138476;-56
2022/10/26 07:16:58;;;;;;;7.10;6.00;;;;;;;12.28;100.00;99390.61;106775;1302;22895;-55
2022/10/26 07:19:25;;;;;;;6.60;6.00;;;;;;;12.29;100.00;99392.95;106630;1302;139037;-55
2022/10/26 07:21:55;;;;;;;11.50;5.90;;;;;;;12.27;100.00;99386.30;106683;1302;23001;-56
2022/10/26 07:24:22;;;;;;;9.10;6.10;;;;;;;12.33;100.00;99391.61;106753;1303;22212;-55
2022/10/26 07:26:49;;;;;;;6.60;5.20;;;;;;;12.37;100.00;99402.77;106608;1303;139550;-55
2022/10/26 07:29:17;;;;;;;15.70;6.50;;;;;;;12.40;100.00;99400.96;106693;1303;22156;-55
2022/10/26 07:31:43;;;;;;;7.50;5.10;;;;;;;12.43;100.00;99403.46;106578;1305;139603;-55
2022/10/26 07:34:10;;;;;;;9.10;6.00;;;;;;;12.46;100.00;99408.33;106747;1303;22174;-53
2022/10/26 07:36:38;;;;;;;6.50;5.60;;;;;;;12.49;100.00;99412.38;106681;1296;22147;-55
2022/10/26 07:39:05;;;;;;;6.60;5.50;;;;;;;12.51;100.00;99412.48;106628;1303;139346;-55
2022/10/26 07:41:32;;;;;;;8.30;6.00;;;;;;;12.53;100.00;99415.83;106703;1303;22147;-55
2022/10/26 07:43:59;;;;;;;8.70;5.80;;;;;;;12.53;100.00;99414.14;106657;1297;140152;-56
2022/10/26 07:46:26;;;;;;;13.40;5.80;;;;;;;12.55;100.00;99417.25;106748;1302;22207;-56
2022/10/26 07:48:53;;;;;;;7.00;6.20;;;;;;;12.56;99.91;99413.95;106625;1303;22150;-55
2022/10/26 07:51:20;;;;;;;9.10;6.20;;;;;;;12.56;99.91;99411.60;106573;1297;138363;-55
2022/10/26 07:53:47;;;;;;;7.60;6.10;;;;;;;12.57;99.84;99415.86;106780;1287;22436;-55
2022/10/26 07:56:14;;;;;;;8.30;6.20;;;;;;;12.60;99.89;99417.30;104728;1296;141275;-55
2022/10/26 07:58:40;;;;;;;9.40;6.10;;;;;;;12.62;99.89;99416.80;102310;1290;22608;-55
2022/10/26 08:01:09;;;;;;;7.90;5.80;;;;;;;12.64;99.74;99422.45;102280;1288;139264;-55
2022/10/26 08:03:37;;;;;;;7.10;5.70;;;;;;;12.62;99.52;99417.24;106424;1296;22245;-55
2022/10/26 08:06:03;;;;;;;11.20;5.90;;;;;;;12.66;99.51;99423.77;106687;1303;22878;-56
2022/10/26 08:08:31;;;;;;;6.80;5.30;;;;;;;12.67;99.53;99429.23;106527;1288;139997;-56
2022/10/26 08:10:58;;;;;;;8.10;5.80;;;;;;;12.68;99.40;99431.68;106740;1294;22190;-56
2022/10/26 08:13:24;;;;;;;8.40;5.60;;;;;;;12.68;99.22;99430.59;106627;1295;139716;-55
2022/10/26 08:15:58;;;;;;;8.70;4.90;;;;;;;12.65;99.22;99429.61;106729;1302;22200;-55
2022/10/26 08:18:25;;;;;;;7.50;5.70;;;;;;;12.69;99.13;99438.25;106764;1305;22297;-55
2022/10/26 08:20:52;;;;;;;8.70;5.50;;;;;;;12.70;98.99;99439.10;106582;1290;138067;-55
2022/10/26 08:23:21;;;;;;;6.80;5.20;;;;;;;12.69;98.89;99434.89;106732;1280;22213;-55
2022/10/26 08:25:48;;;;;;;7.80;5.40;;;;;;;12.69;98.78;99439.83;106605;1281;137931;-55
2022/10/26 08:28:15;;;;;;;9.20;5.90;;;;;;;12.68;98.46;99438.85;106705;1295;22152;-55
2022/10/26 08:30:42;;;;;;;9.30;5.70;;;;;;;12.70;98.56;99440.63;106767;1303;22107;-55
2022/10/26 08:33:08;;;;;;;8.40;4.90;;;;;;;12.71;98.58;99435.65;106646;1295;137939;-55
2022/10/26 08:35:35;;;;;;;7.50;5.80;;;;;;;12.72;98.50;99438.98;106690;1302;23631;-55
2022/10/26 08:38:02;;;;;;;7.90;4.90;;;;;;;12.74;98.34;99436.75;106626;1280;138617;-55
2022/10/26 08:40:30;;;;;;;7.10;4.60;;;;;;;12.76;98.40;99438.06;106695;1300;22395;-56
2022/10/26 08:43:33;;;;;;;7.60;5.30;;;;;;;12.79;98.22;99444.14;106606;1303;139057;-56
2022/10/26 08:46:04;;;;;;;6.60;5.30;;;;;;;12.84;98.41;99443.48;106172;1305;23210;-56
2022/10/26 08:48:33;;;;;;;6.50;5.10;;;;;;;12.89;98.27;99449.21;106351;1292;22259;-56
2022/10/26 08:51:02;;;;;;;11.30;6.10;;;;;;;12.93;98.09;99450.91;106077;1303;138044;-56
2022/10/26 08:53:33;;;;;;;6.60;5.30;;;;;;;12.97;97.88;99451.30;106215;1308;22240;-56
2022/10/26 08:56:17;;;;;;;5.70;5.00;;;;;;;13.02;97.94;99454.22;106123;1300;138660;-56
2022/10/26 08:58:55;;;;;;;7.30;5.40;;;;;;;13.05;97.67;99450.89;106119;1280;22217;-56
2022/10/26 09:01:22;;;;;;;5.90;5.10;;;;;;;13.13;97.41;99461.88;106138;1300;138246;-56
2022/10/26 09:03:49;;;;;;;7.70;5.70;;;;;;;13.16;96.83;99458.77;106176;1310;22199;-56
2022/10/26 09:06:24;;;;;;;9.80;6.00;;;;;;;13.18;96.60;99461.99;104125;1308;25730;-55
2022/10/26 09:09:01;;;;;;;6.50;5.30;;;;;;;13.19;96.29;99464.57;101603;1294;137991;-54
2022/10/26 09:11:54;;;;;;;6.10;4.20;;;;;;;13.20;96.05;99467.74;101625;1286;25002;-55
2022/10/26 09:14:53;;;;;;;7.40;4.70;;;;;;;13.19;95.72;99470.05;101557;1290;138018;-54
2022/10/26 09:17:38;;;;;;;9.20;4.20;;;;;;;13.17;95.60;99475.56;101753;1301;22501;-53
2022/10/26 09:20:25;;;;;;;6.00;4.70;;;;;;;13.14;95.34;99476.10;101580;1286;138434;-54
2022/10/26 09:23:06;;;;;;;5.90;4.60;;;;;;;13.12;95.66;99478.62;101918;1299;22589;-54
2022/10/26 09:25:43;;;;;;;7.00;5.00;;;;;;;13.12;95.74;99480.92;102178;1288;138542;-53
2022/10/26 09:28:14;;;;;;;;;;;;;;;13.13;95.75;99480.10;102176;1281;23374;-54
2022/10/26 09:30:43;;;;;;;7.20;5.50;;;;;;;13.14;95.67;99478.95;102080;1304;24286;-54
2022/10/26 09:33:15;;;;;;;8.40;5.20;;;;;;;13.16;95.88;99483.01;106510;1302;138080;-55
2022/10/26 09:35:51;;;;;;;7.90;5.60;;;;;;;13.20;95.82;99482.36;106598;1291;22148;-56
2022/10/26 09:38:31;;;;;;;11.00;4.70;;;;;;;13.23;95.70;99479.45;106700;1297;22906;-56
2022/10/26 09:41:22;;;;;;;7.30;5.60;;;;;;;13.27;95.27;99480.64;103274;1288;22614;-54
2022/10/26 09:44:06;;;;;;;10.40;6.20;;;;;;;13.27;94.32;99478.02;102392;1298;24397;-54
2022/10/26 09:46:45;;;;;;;11.30;5.70;;;;;;;13.24;94.46;99477.11;102434;1298;25230;-55
2022/10/26 09:49:12;;;;;;;7.90;5.60;;;;;;;13.23;94.71;99479.45;106315;1312;22173;-57
2022/10/26 09:51:41;;;;;;;9.20;6.90;;;;;;;13.23;94.82;99478.31;106518;1302;22197;-57
2022/10/26 09:54:16;;;;;;;11.00;7.20;;;;;;;13.21;94.98;99479.46;106646;1279;22159;-56
2022/10/26 09:56:54;;;;;;;9.20;6.70;;;;;;;13.17;94.99;99477.70;106638;1290;22266;-56
2022/10/26 09:59:22;;;;;;;11.10;6.20;;;;;;;13.16;95.09;99476.34;106598;1305;22231;-53
2022/10/26 10:01:49;;;;;;;11.00;6.80;;;;;;;13.17;95.60;99476.44;106596;1298;22106;-54
2022/10/26 10:04:24;;;;;;;8.30;6.40;;;;;;;13.24;96.42;99479.08;106722;1300;22922;-54
2022/10/26 10:07:11;;;;;;;6.20;5.60;;;;;;;13.32;96.38;99478.55;106678;1305;23138;-55
2022/10/26 10:09:37;;;;;;;10.60;7.20;;;;;;;13.40;96.10;99476.80;106636;1281;22132;-55
2022/10/26 10:12:04;;;;;;;10.00;7.40;;;;;;;13.44;95.41;99474.59;106679;1305;22201;-55
2022/10/26 10:14:38;;;;;;;8.90;6.70;;;;;;;13.46;95.09;99472.71;106520;1288;22227;-55
2022/10/26 10:17:09;;;;;;;13.90;6.70;;;;;;;13.48;94.42;99471.34;106709;1295;22142;-55
2022/10/26 10:19:37;;;;;;;9.70;7.10;;;;;;;13.50;94.41;99471.56;106560;1304;22285;-55
2022/10/26 10:22:06;;;;;;;9.80;7.00;;;;;;;13.53;94.39;99472.55;106543;1305;22930;-55
2022/10/26 10:24:35;;;;;;;8.10;5.70;;;;;;;13.60;94.34;99471.30;106605;1303;22400;-56
2022/10/26 10:27:22;;;;;;;8.60;6.00;;;;;;;13.67;93.16;99474.20;106753;1281;22160;-55
2022/10/26 10:29:51;;;;;;;11.00;5.60;;;;;;;13.73;91.90;99473.06;106651;1296;22414;-57
2022/10/26 10:32:31;;;;;;;9.40;5.10;;;;;;;13.78;91.63;99473.92;106630;1298;22125;-57
2022/10/26 10:35:23;;;;;;;8.00;6.20;;;;;;;13.84;91.11;99470.73;106617;1298;22200;-56
2022/10/26 10:37:49;;;;;;;7.70;4.80;;;;;;;13.88;90.87;99468.34;106635;1284;22260;-56
2022/10/26 10:40:20;;;;;;;7.10;4.80;;;;;;;13.96;90.18;99469.52;106423;1288;22267;-56
2022/10/26 10:42:47;;;;;;;5.60;4.60;;;;;;;13.99;89.76;99471.04;106586;1290;22157;-55
2022/10/26 10:45:26;;;;;;;8.10;5.60;;;;;;;14.03;89.41;99477.09;106625;1305;22975;-55
2022/10/26 10:48:11;;;;;;;7.50;4.20;;;;;;;14.04;87.99;99475.78;106751;1303;22123;-55
2022/10/26 10:50:58;;;;;;;9.40;5.50;;;;;;;14.03;88.03;99476.33;106685;1295;22894;-55
2022/10/26 10:53:27;;;;;;;10.40;5.50;;;;;;;14.04;87.31;99482.24;106573;1281;22180;-55
2022/10/26 10:56:06;;;;;;;7.70;4.60;;;;;;;14.03;86.91;99484.88;106671;1302;22833;-55
2022/10/26 10:58:49;;;;;;;6.70;4.70;;;;;;;14.02;86.15;99487.13;106601;1305;22149;-55
2022/10/26 11:01:20;;;;;;;7.90;5.50;;;;;;;14.01;86.38;99488.61;106682;1306;22137;-55
2022/10/26 11:03:53;;;;;;;13.00;5.30;;;;;;;14.02;86.51;99487.13;106708;1303;22336;-55
2022/10/26 11:06:23;;;;;;;7.40;5.30;;;;;;;14.02;85.80;99490.90;106651;1304;22196;-54
2022/10/26 11:08:59;;;;;;;10.10;5.70;;;;;;;14.02;85.59;99485.31;106505;1290;22237;-54
2022/10/26 11:11:36;;;;;;;7.20;5.00;;;;;;;14.01;85.46;99488.98;106640;1305;22136;-55
2022/10/26 11:14:25;;;;;;;7.00;5.70;;;;;;;14.00;85.19;99487.23;106604;1304;22151;-55
2022/10/26 11:16:55;;;;;;;8.70;6.20;;;;;;;13.98;85.05;99483.39;106671;1288;22295;-56
2022/10/26 11:19:28;;;;;;;12.50;6.60;;;;;;;13.96;85.12;99484.48;106636;1302;22228;-56
2022/10/26 11:21:54;;;;;;;7.00;5.40;;;;;;;13.91;85.06;99480.61;106662;1299;22215;-55
2022/10/26 11:24:34;;;;;;;15.50;8.70;;;;;;;13.87;85.10;99480.73;106660;1303;22271;-56
2022/10/26 11:27:25;;;;;;;13.30;10.80;;;;;;;13.85;85.16;99481.34;106749;1302;22263;-55
2022/10/26 11:30:26;;;;;;;14.70;11.60;;;;;;;13.84;85.32;99480.92;106255;1307;22224;-55
2022/10/26 11:32:59;;;;;;;11.60;9.40;;;;;;;13.82;85.54;99479.95;106246;1310;22377;-55
2022/10/26 11:35:30;;;;;;;14.40;8.10;;;;;;;13.82;85.80;99479.95;106031;1308;22194;-55
2022/10/26 11:38:00;;;;;;;8.80;5.70;;;;;;;13.83;85.85;99480.65;106177;1303;22259;-55
2022/10/26 11:40:32;;;;;;;8.80;6.40;;;;;;;13.86;85.93;99476.79;106220;1310;22430;-55